Time;durP1;ratioP1;P1;durP2;ratioP2;P2;SDS_P1;SDS_P2;PMS_P1;PMS_P2;Temp;Humidity;BMP_temperature;BMP_pressure;BME280_temperature;BME280_humidity;BME280_pressure;Samples;Min_cycle;Max_cycle;Signal;HPM_P1;HPM_P2
2023/01/01 00:00:23;;;;;;;56.80;37.40;;;;;;;10.56;71.83;100260.38;2126456;83;27697;-62
2023/01/01 00:03:26;;;;;;;52.35;33.18;;;;;;;10.49;72.32;100269.20;2126218;83;27693;-62
2023/01/01 00:06:29;;;;;;;54.58;32.65;;;;;;;10.47;72.62;100283.63;2126515;83;31026;-62
2023/01/01 00:12:51;;;;;;;50.78;32.10;;;;;;;10.51;73.17;100292.37;2157936;82;29443;-62
2023/01/01 00:15:53;;;;;;;59.88;39.65;;;;;;;10.55;73.49;100296.15;2157867;82;27725;-62
2023/01/01 00:18:55;;;;;;;38.20;26.00;;;;;;;10.60;73.71;100295.91;2158102;82;29360;-63
2023/01/01 00:21:57;;;;;;;46.18;30.65;;;;;;;10.70;73.99;100297.20;2157792;82;32259;-62
2023/01/01 00:25:01;;;;;;;29.85;21.77;;;;;;;10.82;74.09;100297.52;2157756;82;34268;-62
2023/01/01 00:28:04;;;;;;;27.15;17.90;;;;;;;10.95;74.12;100297.28;2158140;82;29137;-62
2023/01/01 00:31:10;;;;;;;28.00;16.73;;;;;;;11.06;74.05;100289.58;2158235;82;27675;-62
2023/01/01 00:34:13;;;;;;;25.68;16.75;;;;;;;11.17;73.94;100289.48;2157816;81;28653;-62
2023/01/01 00:37:17;;;;;;;25.92;17.05;;;;;;;11.24;73.77;100298.45;2157697;82;31904;-63
2023/01/01 00:40:22;;;;;;;25.68;17.07;;;;;;;11.29;73.69;100296.88;2132726;82;32967;-63
2023/01/01 00:43:24;;;;;;;57.75;35.73;;;;;;;11.36;73.63;100296.95;2158398;82;29977;-63
2023/01/01 00:46:26;;;;;;;32.42;22.60;;;;;;;11.42;73.53;100298.44;2158226;82;27588;-64
2023/01/01 00:49:28;;;;;;;16.37;10.43;;;;;;;11.48;73.47;100296.78;2158144;82;30025;-63
2023/01/01 00:52:30;;;;;;;12.40;8.88;;;;;;;11.55;73.42;100299.51;2157859;82;31032;-63
2023/01/01 00:55:31;;;;;;;10.40;6.58;;;;;;;11.65;73.34;100299.88;2157734;82;34209;-64
2023/01/01 00:58:33;;;;;;;10.98;6.37;;;;;;;11.80;73.23;100307.58;2157952;82;30138;-62
2023/01/01 01:01:36;;;;;;;8.23;5.45;;;;;;;11.92;72.94;100300.65;2157789;81;27717;-63
2023/01/01 01:04:38;;;;;;;10.20;6.67;;;;;;;12.06;72.85;100313.34;2157945;82;28633;-64
2023/01/01 01:07:41;;;;;;;10.53;6.42;;;;;;;12.19;72.58;100316.68;2129781;82;31596;-62
2023/01/01 01:10:43;;;;;;;10.93;7.37;;;;;;;12.31;72.37;100307.95;2157723;82;34181;-62
2023/01/01 01:13:47;;;;;;;8.90;5.53;;;;;;;12.43;72.20;100307.70;2157742;82;30252;-63
2023/01/01 01:16:50;;;;;;;8.38;5.20;;;;;;;12.54;72.04;100316.03;2158436;82;27600;-63
2023/01/01 01:19:51;;;;;;;8.65;4.75;;;;;;;12.65;71.75;100320.80;2157778;82;29915;-65
2023/01/01 01:22:53;;;;;;;8.33;5.15;;;;;;;12.76;71.62;100328.20;2158113;82;32047;-66
2023/01/01 01:26:10;;;;;;;9.40;5.12;;;;;;;12.89;71.37;100322.98;2157717;82;33844;-67
2023/01/01 01:29:12;;;;;;;8.20;4.37;;;;;;;13.00;71.19;100319.17;2158123;82;29038;-63
2023/01/01 01:32:13;;;;;;;5.80;3.98;;;;;;;13.11;70.87;100323.91;2157916;82;27794;-62
2023/01/01 01:35:16;;;;;;;4.60;3.42;;;;;;;13.20;70.77;100323.84;2147588;81;29648;-62
2023/01/01 01:38:18;;;;;;;5.37;3.75;;;;;;;13.31;70.39;100326.77;2136574;82;31539;-62
2023/01/01 01:41:26;;;;;;;6.35;3.75;;;;;;;13.42;70.23;100330.16;2126201;83;33868;-61
2023/01/01 01:44:52;;;;;;;7.75;3.55;;;;;;;13.52;69.88;100327.77;2101378;83;29881;-63
2023/01/01 01:47:59;;;;;;;5.65;3.35;;;;;;;13.60;69.87;100328.17;2126179;83;27625;-63
2023/01/01 01:51:02;;;;;;;5.53;3.67;;;;;;;13.71;69.70;100325.28;2129854;83;28770;-63
2023/01/01 01:54:12;;;;;;;4.22;3.00;;;;;;;13.79;69.17;100316.26;2137935;83;31183;-63
2023/01/01 01:57:16;;;;;;;6.67;3.95;;;;;;;13.87;69.10;100322.01;2138441;83;33073;-62
2023/01/01 02:00:21;;;;;;;4.75;3.25;;;;;;;13.93;68.98;100324.33;2137952;83;29123;-61
2023/01/01 02:03:53;;;;;;;9.70;3.35;;;;;;;14.00;68.84;100327.95;2138337;83;27697;-61
2023/01/01 02:06:58;;;;;;;5.58;3.30;;;;;;;14.04;68.42;100325.00;2090658;83;28755;-61
2023/01/01 02:10:05;;;;;;;5.55;3.15;;;;;;;14.10;68.25;100319.19;2088819;85;31075;-61
2023/01/01 02:13:08;;;;;;;4.40;3.20;;;;;;;14.16;68.10;100325.16;2089343;85;32994;-61
2023/01/01 02:16:33;;;;;;;4.60;3.02;;;;;;;14.19;67.87;100331.20;2089154;85;29043;-61
2023/01/01 02:20:03;;;;;;;4.15;2.85;;;;;;;14.23;67.75;100323.81;2089104;85;27801;-62
2023/01/01 02:23:29;;;;;;;3.92;2.85;;;;;;;14.32;67.12;100319.16;2081572;85;29973;-62
2023/01/01 02:26:46;;;;;;;;;;;;;;;14.32;67.12;100319.16;2082927;85;31012;-63
2023/01/01 02:30:04;;;;;;;4.08;2.87;;;;;;;14.37;67.13;100321.08;2080063;85;33868;-61
2023/01/01 02:33:13;;;;;;;2.95;2.52;;;;;;;14.40;66.67;100312.77;2074528;84;29051;-61
2023/01/01 02:36:16;;;;;;;4.92;2.77;;;;;;;14.47;66.34;100303.83;2080282;85;27758;-62
2023/01/01 02:39:22;;;;;;;3.08;2.33;;;;;;;14.56;66.46;100315.34;2088224;85;28809;-62
2023/01/01 02:42:27;;;;;;;4.60;2.70;;;;;;;14.63;65.82;100332.47;2138580;83;31010;-62
2023/01/01 02:45:28;;;;;;;;;;;;;;;14.68;65.75;100326.30;2141162;83;33746;-63
2023/01/01 02:48:48;;;;;;;3.92;2.60;;;;;;;14.72;65.46;100323.31;2138370;83;29416;-62
2023/01/01 02:52:10;;;;;;;3.17;2.30;;;;;;;14.72;65.62;100321.97;2141076;83;27688;-62
2023/01/01 02:55:26;;;;;;;3.00;2.30;;;;;;;14.78;65.50;100336.87;2101975;84;29797;-61
2023/01/01 03:02:13;;;;;;;3.72;2.90;;;;;;;14.81;65.45;100341.18;2089182;85;33849;-63
2023/01/01 03:06:21;;;;;;;3.55;2.52;;;;;;;14.82;65.07;100341.56;2009212;88;28538;-62
2023/01/01 03:09:03;;;;;;;3.15;2.37;;;;;;;14.84;64.35;100330.20;2009391;88;27810;-62
2023/01/01 03:12:17;;;;;;;3.20;2.22;;;;;;;14.84;64.35;100330.20;2009409;88;28678;-62
2023/01/01 03:15:38;;;;;;;4.97;2.90;;;;;;;14.86;64.39;100335.86;1947600;91;32375;-63
2023/01/01 03:19:12;;;;;;;5.28;2.58;;;;;;;14.87;64.49;100340.28;1887017;94;33449;-63
2023/01/01 03:25:24;;;;;;;6.37;3.60;;;;;;;14.86;64.35;100350.69;1834439;97;27860;-61
2023/01/01 03:28:32;;;;;;;5.83;3.20;;;;;;;14.87;64.03;100361.86;1830795;96;28758;-61
2023/01/01 03:31:36;;;;;;;3.47;2.58;;;;;;;14.85;63.99;100359.75;1816704;97;31110;-61
2023/01/01 03:34:43;;;;;;;4.05;2.90;;;;;;;14.84;63.93;100362.06;1820697;96;33041;-62
2023/01/01 03:37:48;;;;;;;4.15;3.08;;;;;;;14.83;63.81;100371.61;1822702;97;29259;-62
2023/01/01 03:40:55;;;;;;;4.55;2.92;;;;;;;14.81;63.50;100373.05;1822792;97;27773;-61
2023/01/01 03:44:20;;;;;;;5.20;3.15;;;;;;;14.79;63.48;100375.01;1912650;93;29586;-61
2023/01/01 03:47:23;;;;;;;4.80;3.40;;;;;;;14.73;63.36;100359.22;1912835;93;30500;-61
2023/01/01 03:50:51;;;;;;;6.80;3.33;;;;;;;14.64;63.39;100351.72;1912858;93;33096;-62
2023/01/01 03:53:56;;;;;;;3.90;2.98;;;;;;;14.64;63.39;100351.72;1977500;90;30151;-62
2023/01/01 03:57:03;;;;;;;;;;;;;;;14.75;63.01;100370.78;2058679;86;28386;-61
2023/01/01 04:00:13;;;;;;;4.50;2.90;;;;;;;14.73;62.91;100378.95;2027385;87;28727;-61
2023/01/01 04:03:19;;;;;;;4.58;3.08;;;;;;;14.68;62.93;100379.76;2005988;87;31101;-62
2023/01/01 04:06:21;;;;;;;5.42;3.12;;;;;;;14.66;62.77;100385.70;2027049;87;34247;-61
2023/01/01 04:09:27;;;;;;;5.42;3.60;;;;;;;14.65;62.59;100384.43;2027660;87;30009;-61
2023/01/01 04:12:30;;;;;;;4.35;2.55;;;;;;;14.63;62.58;100393.13;2027542;87;27919;-62
2023/01/01 04:15:34;;;;;;;5.17;3.10;;;;;;;14.60;62.49;100395.52;2027474;87;28023;-62
2023/01/01 04:18:36;;;;;;;4.15;3.15;;;;;;;14.58;62.61;100394.29;2027356;87;31320;-62
2023/01/01 04:21:38;;;;;;;5.85;3.35;;;;;;;14.51;62.01;100381.31;2027877;87;33367;-62
2023/01/01 04:24:40;;;;;;;4.53;2.72;;;;;;;14.51;62.01;100381.31;2027174;87;30060;-62
2023/01/01 04:27:41;;;;;;;5.45;3.40;;;;;;;14.48;62.27;100393.63;2049391;83;27818;-62
2023/01/01 04:30:43;;;;;;;3.60;2.52;;;;;;;14.42;62.33;100390.36;2116575;84;29088;-61
2023/01/01 04:33:45;;;;;;;6.00;3.30;;;;;;;14.38;62.31;100401.44;2116088;83;31586;-62
2023/01/01 04:36:47;;;;;;;4.70;2.98;;;;;;;14.38;62.31;100401.44;2131010;82;34237;-61
2023/01/01 04:39:50;;;;;;;4.62;3.40;;;;;;;14.35;62.25;100397.13;2147468;82;30214;-62
2023/01/01 04:42:53;;;;;;;3.87;2.65;;;;;;;14.32;62.16;100396.43;2147544;82;27683;-63
2023/01/01 04:45:57;;;;;;;5.75;3.05;;;;;;;14.21;62.15;100379.13;2147451;82;28802;-62
2023/01/01 04:48:59;;;;;;;3.92;3.08;;;;;;;14.28;61.96;100398.47;2147828;82;31056;-62
2023/01/01 04:52:01;;;;;;;5.58;2.87;;;;;;;14.22;61.98;100406.47;2147495;82;34102;-62
2023/01/01 04:55:04;;;;;;;6.15;2.90;;;;;;;14.19;61.96;100413.39;2147093;82;30261;-61
2023/01/01 04:58:06;;;;;;;4.22;2.67;;;;;;;14.15;62.02;100428.50;2152687;80;27683;-61
2023/01/01 05:01:14;;;;;;;4.80;2.70;;;;;;;14.10;61.71;100424.75;2184970;81;29841;-61
2023/01/01 05:04:17;;;;;;;4.60;2.72;;;;;;;14.08;61.88;100427.52;2168002;81;32251;-62
2023/01/01 05:07:19;;;;;;;4.72;3.20;;;;;;;14.09;61.60;100431.95;2184949;81;32953;-62
2023/01/01 05:10:21;;;;;;;4.17;2.95;;;;;;;14.06;61.72;100427.25;2184687;81;30245;-61
2023/01/01 05:13:23;;;;;;;6.08;3.00;;;;;;;14.01;61.53;100433.39;2184680;81;27631;-62
2023/01/01 05:16:33;;;;;;;3.87;2.92;;;;;;;13.86;61.67;100412.33;2184576;81;29540;-63
2023/01/01 05:19:34;;;;;;;6.10;3.30;;;;;;;13.86;61.67;100412.33;2184858;81;31614;-62
2023/01/01 05:22:36;;;;;;;5.35;3.52;;;;;;;13.95;61.79;100435.99;2184865;81;33765;-63
2023/01/01 05:25:38;;;;;;;4.62;3.25;;;;;;;13.91;61.79;100433.09;2185011;81;29011;-62
2023/01/01 05:28:40;;;;;;;5.65;2.80;;;;;;;13.86;61.87;100445.50;2198484;80;27689;-63
2023/01/01 05:31:43;;;;;;;3.30;2.70;;;;;;;13.81;61.76;100453.02;2217911;80;29238;-61
2023/01/01 05:34:45;;;;;;;3.98;3.33;;;;;;;13.75;61.77;100450.19;2217568;79;31086;-61
2023/01/01 05:37:47;;;;;;;4.70;3.58;;;;;;;13.69;62.15;100438.47;2217627;80;34281;-62
2023/01/01 05:40:49;;;;;;;5.92;3.02;;;;;;;13.64;61.77;100442.79;2217485;80;30204;-62
2023/01/01 05:43:52;;;;;;;4.92;3.35;;;;;;;13.61;62.00;100448.81;2217801;80;27756;-62
2023/01/01 05:46:54;;;;;;;4.42;2.87;;;;;;;13.56;61.97;100448.24;2217310;80;29681;-62
2023/01/01 05:49:56;;;;;;;4.42;3.35;;;;;;;13.52;62.08;100450.23;2217445;80;31885;-62
2023/01/01 05:52:57;;;;;;;4.97;3.45;;;;;;;13.50;62.07;100454.37;2217468;80;34135;-62
2023/01/01 05:56:00;;;;;;;3.80;2.90;;;;;;;13.49;62.08;100447.25;2217509;80;29536;-62
2023/01/01 05:59:02;;;;;;;3.83;3.00;;;;;;;13.47;62.03;100459.08;2217750;80;28251;-62
2023/01/01 06:02:04;;;;;;;4.95;2.55;;;;;;;13.40;61.95;100446.47;2217511;80;29509;-61
2023/01/01 06:05:07;;;;;;;4.00;2.80;;;;;;;13.44;62.04;100457.91;2217510;80;32045;-62
2023/01/01 06:08:08;;;;;;;3.85;2.95;;;;;;;13.44;61.92;100454.72;2217494;80;34163;-61
2023/01/01 06:11:11;;;;;;;5.90;3.00;;;;;;;13.47;62.00;100460.42;2217531;80;30359;-60
2023/01/01 06:14:13;;;;;;;6.55;3.05;;;;;;;13.46;62.06;100454.66;2217741;80;27657;-62
2023/01/01 06:17:15;;;;;;;5.50;3.22;;;;;;;13.45;62.03;100457.80;2217545;80;30074;-62
2023/01/01 06:20:17;;;;;;;4.30;3.17;;;;;;;13.34;62.13;100449.48;2218073;80;31054;-62
2023/01/01 06:23:19;;;;;;;4.15;2.90;;;;;;;13.43;62.01;100461.55;2217820;80;32370;-63
2023/01/01 06:26:25;;;;;;;4.30;2.80;;;;;;;13.41;61.97;100463.47;2217759;80;30216;-61
2023/01/01 06:29:27;;;;;;;3.65;2.87;;;;;;;13.36;62.09;100457.83;2218179;80;27609;-62
2023/01/01 06:32:29;;;;;;;5.72;2.60;;;;;;;13.33;62.13;100461.20;2217696;80;29505;-63
2023/01/01 06:35:32;;;;;;;4.15;2.50;;;;;;;13.30;62.26;100455.98;2217550;80;32217;-64
2023/01/01 06:38:37;;;;;;;4.83;2.70;;;;;;;13.25;62.24;100458.95;2217274;80;32990;-62
2023/01/01 06:41:39;;;;;;;4.05;2.60;;;;;;;13.20;62.34;100457.88;2217066;80;29212;-62
2023/01/01 06:44:40;;;;;;;6.30;3.20;;;;;;;13.16;62.45;100456.78;2217191;80;27699;-62
2023/01/01 06:47:42;;;;;;;5.60;2.80;;;;;;;13.13;62.49;100459.67;2205813;80;29107;-62
2023/01/01 06:50:44;;;;;;;5.45;3.10;;;;;;;13.08;62.56;100457.23;2181486;81;31436;-62
2023/01/01 06:53:47;;;;;;;5.37;3.00;;;;;;;13.03;62.58;100471.44;2181120;81;33304;-62
2023/01/01 06:56:49;;;;;;;4.58;3.10;;;;;;;12.98;62.67;100473.52;2181213;81;29830;-62
2023/01/01 06:59:51;;;;;;;6.90;3.25;;;;;;;12.94;62.77;100463.42;2180989;81;28322;-62
2023/01/01 07:02:53;;;;;;;6.37;2.62;;;;;;;12.92;62.88;100472.05;2181232;81;29844;-61
2023/01/01 07:05:55;;;;;;;7.53;3.10;;;;;;;12.90;62.93;100471.26;2180930;81;32398;-63
2023/01/01 07:08:58;;;;;;;3.47;2.77;;;;;;;12.91;62.98;100479.23;2180991;81;34187;-62
2023/01/01 07:12:00;;;;;;;5.30;3.25;;;;;;;12.92;63.03;100486.34;2181036;81;29903;-62
2023/01/01 07:15:02;;;;;;;4.58;2.98;;;;;;;12.92;63.00;100483.66;2181218;81;28007;-63
2023/01/01 07:18:04;;;;;;;4.45;2.70;;;;;;;12.97;63.12;100500.02;2181138;80;29683;-63
2023/01/01 07:21:33;;;;;;;5.37;2.75;;;;;;;12.97;63.12;100500.02;2181426;81;31838;-61
2023/01/01 07:24:38;;;;;;;7.08;3.65;;;;;;;13.00;63.07;100500.70;2180973;81;34262;-62
2023/01/01 07:27:40;;;;;;;;;;;;;;;13.02;63.10;100501.98;2183647;81;30215;-61
2023/01/01 07:30:42;;;;;;;6.05;2.70;;;;;;;13.03;63.04;100509.09;2181543;81;27588;-62
2023/01/01 07:33:44;;;;;;;7.83;3.52;;;;;;;13.04;62.99;100505.45;2181006;81;29994;-62
2023/01/01 07:36:46;;;;;;;4.42;2.95;;;;;;;13.06;63.06;100509.78;2180895;80;31741;-61
2023/01/01 07:39:48;;;;;;;5.55;2.70;;;;;;;13.06;63.06;100513.81;2180966;81;34256;-61
2023/01/01 07:42:50;;;;;;;4.60;3.42;;;;;;;13.11;63.03;100518.07;2181126;81;29464;-62
2023/01/01 07:45:52;;;;;;;4.55;3.00;;;;;;;13.11;63.03;100518.07;2181533;81;27671;-61
2023/01/01 07:48:54;;;;;;;4.05;2.77;;;;;;;13.14;63.15;100517.41;2206262;80;29896;-61
2023/01/01 07:51:56;;;;;;;4.67;3.10;;;;;;;13.21;63.20;100517.92;2216894;80;32232;-61
2023/01/01 07:54:57;;;;;;;4.67;3.10;;;;;;;13.27;63.16;100522.97;2216819;80;34189;-64
2023/01/01 07:58:00;;;;;;;7.35;2.90;;;;;;;13.36;63.00;100525.60;2217241;80;30142;-61
2023/01/01 08:01:01;;;;;;;7.45;3.05;;;;;;;13.44;63.14;100522.50;2217333;80;27609;-61
2023/01/01 08:04:04;;;;;;;5.45;2.98;;;;;;;13.53;63.02;100524.64;2216867;80;29583;-61
2023/01/01 08:07:07;;;;;;;4.00;2.87;;;;;;;13.74;62.62;100522.50;2217195;80;31063;-62
2023/01/01 08:10:10;;;;;;;5.20;3.50;;;;;;;13.74;62.62;100522.50;2216801;80;33008;-61
2023/01/01 08:13:11;;;;;;;6.35;3.77;;;;;;;13.83;62.78;100527.35;2217229;80;29169;-60
2023/01/01 08:16:13;;;;;;;6.60;3.80;;;;;;;13.85;62.77;100507.55;2217623;80;27522;-61
2023/01/01 08:19:15;;;;;;;4.45;3.08;;;;;;;14.02;62.56;100521.33;2216540;80;30727;-61
2023/01/01 08:22:17;;;;;;;4.53;2.77;;;;;;;14.12;62.55;100517.98;2216960;80;32417;-61
2023/01/01 08:25:19;;;;;;;5.37;3.20;;;;;;;14.22;62.47;100519.63;2217007;80;33118;-60
2023/01/01 08:28:21;;;;;;;4.67;3.02;;;;;;;14.19;62.25;100497.41;2217326;80;30149;-61
2023/01/01 08:31:26;;;;;;;3.90;2.52;;;;;;;14.41;62.33;100523.39;2216926;80;27654;-62
2023/01/01 08:34:27;;;;;;;4.80;3.17;;;;;;;14.52;62.15;100527.27;2211188;80;28697;-61
2023/01/01 08:37:32;;;;;;;4.83;2.85;;;;;;;14.62;61.97;100531.11;2217337;78;31882;-62
2023/01/01 08:40:35;;;;;;;;;;;;;;;14.72;61.76;100533.66;2220488;80;33335;-62
2023/01/01 08:43:37;;;;;;;6.45;3.42;;;;;;;14.79;61.46;100517.95;2217675;80;29632;-62
2023/01/01 08:46:39;;;;;;;4.85;2.98;;;;;;;14.79;61.46;100517.95;2217791;80;27618;-62
2023/01/01 08:49:41;;;;;;;4.12;2.87;;;;;;;15.02;61.52;100539.86;2218346;80;29089;-62
2023/01/01 08:52:42;;;;;;;3.75;2.87;;;;;;;15.13;61.39;100545.92;2217840;80;32312;-62
2023/01/01 08:55:44;;;;;;;5.90;3.67;;;;;;;15.23;61.36;100547.54;2218250;80;34089;-62
2023/01/01 08:58:46;;;;;;;13.25;4.42;;;;;;;15.30;61.34;100548.88;2218115;80;29944;-63
2023/01/01 09:01:48;;;;;;;6.05;3.20;;;;;;;15.36;60.91;100553.86;2218216;80;27695;-62
2023/01/01 09:04:50;;;;;;;4.75;3.05;;;;;;;15.42;60.75;100553.94;2217835;80;29875;-63
2023/01/01 09:07:52;;;;;;;4.70;3.20;;;;;;;15.48;60.88;100559.80;2217825;80;32244;-63
2023/01/01 09:11:00;;;;;;;5.67;2.65;;;;;;;15.56;60.43;100564.68;2217807;80;34213;-63
2023/01/01 09:14:01;;;;;;;6.92;3.08;;;;;;;15.65;60.40;100568.61;2218292;80;29034;-62
2023/01/01 09:17:03;;;;;;;6.50;3.02;;;;;;;15.70;60.41;100571.88;2213604;80;27677;-63
2023/01/01 09:20:06;;;;;;;3.85;3.08;;;;;;;15.77;59.96;100561.52;2217558;80;29519;-63
2023/01/01 09:23:10;;;;;;;5.50;3.58;;;;;;;15.85;60.07;100560.56;2217919;80;31003;-63
2023/01/01 09:26:12;;;;;;;5.15;3.20;;;;;;;15.93;59.80;100558.70;2217780;80;32970;-63
2023/01/01 09:29:17;;;;;;;8.20;3.42;;;;;;;16.02;59.68;100557.20;2217918;80;29356;-62
2023/01/01 09:32:18;;;;;;;5.53;2.80;;;;;;;16.10;59.64;100556.17;2217506;80;27665;-63
2023/01/01 09:35:20;;;;;;;9.20;2.98;;;;;;;16.20;59.41;100555.05;2217452;80;29532;-63
2023/01/01 09:38:22;;;;;;;3.98;2.65;;;;;;;16.30;59.27;100551.22;2214404;80;31834;-63
2023/01/01 09:41:38;;;;;;;4.65;2.85;;;;;;;16.37;59.01;100560.15;2214299;80;34158;-62
2023/01/01 09:44:54;;;;;;;5.75;2.58;;;;;;;16.43;58.91;100558.84;2177621;81;29304;-62
2023/01/01 09:48:06;;;;;;;2.80;2.45;;;;;;;16.49;58.48;100561.61;2160779;81;27767;-63
2023/01/01 09:51:15;;;;;;;4.72;2.72;;;;;;;16.56;58.37;100562.41;2154794;81;29650;-63
2023/01/01 09:54:32;;;;;;;4.67;3.52;;;;;;;16.64;58.20;100555.11;2178449;81;31195;-62
2023/01/01 09:57:33;;;;;;;6.33;3.65;;;;;;;16.71;58.34;100553.70;2178320;81;33020;-62
2023/01/01 10:00:36;;;;;;;5.80;3.17;;;;;;;16.80;57.90;100553.53;2177757;81;30235;-63
2023/01/01 10:04:16;;;;;;;3.77;3.27;;;;;;;16.86;57.79;100551.75;2178209;81;27738;-63
2023/01/01 10:07:24;;;;;;;7.85;3.72;;;;;;;16.93;57.62;100544.52;2178175;81;28646;-63
2023/01/01 10:10:42;;;;;;;3.87;3.08;;;;;;;17.00;57.68;100544.00;2178150;81;32344;-63
2023/01/01 10:13:45;;;;;;;3.80;2.72;;;;;;;17.05;57.01;100542.30;2177644;81;34165;-62
2023/01/01 10:16:52;;;;;;;6.37;3.08;;;;;;;17.10;57.40;100555.52;2177935;81;30263;-63
2023/01/01 10:19:58;;;;;;;4.55;3.02;;;;;;;17.13;57.06;100561.57;2178409;81;28208;-62
2023/01/01 10:23:19;;;;;;;4.72;2.77;;;;;;;17.15;56.72;100567.73;2186846;80;28631;-63
2023/01/01 10:26:25;;;;;;;4.70;3.08;;;;;;;17.17;56.74;100575.73;2184982;81;32234;-63
2023/01/01 10:29:46;;;;;;;3.52;2.77;;;;;;;17.18;56.95;100571.20;2185105;81;33215;-63
2023/01/01 10:32:50;;;;;;;6.35;3.37;;;;;;;17.16;56.76;100570.83;2185412;81;29026;-62
2023/01/01 10:35:55;;;;;;;6.70;3.40;;;;;;;17.20;56.83;100574.16;2184976;81;27635;-63
2023/01/01 10:38:57;;;;;;;;;;;;;;;17.24;56.49;100568.02;2181202;81;29301;-62
2023/01/01 10:42:01;;;;;;;4.22;2.87;;;;;;;17.26;56.46;100562.02;2178672;81;31415;-62
2023/01/01 10:45:04;;;;;;;3.80;2.90;;;;;;;17.23;56.49;100568.53;2178984;81;33017;-63
2023/01/01 10:48:21;;;;;;;5.83;3.08;;;;;;;17.22;56.07;100575.39;2178653;81;29821;-63
2023/01/01 10:51:25;;;;;;;3.55;2.60;;;;;;;17.20;56.15;100574.16;2190480;80;27679;-62
2023/01/01 10:54:39;;;;;;;6.70;3.87;;;;;;;17.21;55.80;100569.63;2217604;80;28639;-62
2023/01/01 10:57:40;;;;;;;3.52;2.83;;;;;;;17.19;55.53;100560.25;2217203;80;31854;-62
2023/01/01 11:00:42;;;;;;;4.10;3.15;;;;;;;17.24;55.16;100551.78;2217242;80;34071;-62
2023/01/01 11:04:19;;;;;;;4.40;2.98;;;;;;;17.29;55.27;100555.87;2216943;80;30392;-62
2023/01/01 11:07:30;;;;;;;4.60;3.33;;;;;;;17.31;55.35;100547.15;2217368;80;27598;-62
2023/01/01 11:10:32;;;;;;;5.30;3.67;;;;;;;17.34;55.20;100546.55;2216958;80;29725;-62
2023/01/01 11:13:34;;;;;;;6.55;4.50;;;;;;;17.37;55.40;100550.39;2216870;80;31901;-62
2023/01/01 11:16:38;;;;;;;10.93;4.40;;;;;;;17.41;55.13;100547.84;2217188;80;33065;-62
2023/01/01 11:19:41;;;;;;;7.58;4.33;;;;;;;17.45;55.28;100553.41;2217260;80;30059;-63
2023/01/01 11:22:47;;;;;;;4.50;3.77;;;;;;;17.49;55.06;100552.17;2217250;80;27694;-62
2023/01/01 11:26:06;;;;;;;4.58;4.05;;;;;;;17.54;55.02;100550.00;2216955;80;28737;-62
2023/01/01 11:29:25;;;;;;;11.18;4.80;;;;;;;17.64;54.88;100542.52;2217244;80;31853;-63
2023/01/01 11:32:32;;;;;;;6.03;3.58;;;;;;;17.68;54.81;100539.95;2212665;80;32443;-62
2023/01/01 11:35:40;;;;;;;6.92;4.53;;;;;;;17.70;54.76;100532.11;2216866;80;29031;-62
2023/01/01 11:38:42;;;;;;;5.58;3.62;;;;;;;17.73;54.44;100539.97;2214441;80;27712;-62
2023/01/01 11:41:50;;;;;;;6.12;3.98;;;;;;;17.75;54.57;100533.10;2217326;80;29855;-62
2023/01/01 11:45:02;;;;;;;6.75;3.85;;;;;;;17.79;54.35;100533.72;2217084;80;31039;-63
2023/01/01 11:48:12;;;;;;;6.10;4.10;;;;;;;17.83;54.38;100529.80;2217028;80;33414;-62
2023/01/01 11:51:32;;;;;;;5.90;4.00;;;;;;;17.87;54.25;100539.44;2203935;80;29433;-63
2023/01/01 11:54:37;;;;;;;6.45;4.25;;;;;;;17.93;54.20;100548.43;2181110;80;27729;-63
2023/01/01 11:57:43;;;;;;;6.92;4.45;;;;;;;18.01;54.07;100550.58;2181061;81;29602;-62
2023/01/01 12:00:46;;;;;;;6.20;3.85;;;;;;;18.06;54.05;100554.66;2181409;81;31918;-62
2023/01/01 12:04:06;;;;;;;6.30;4.08;;;;;;;18.11;53.62;100559.75;2180964;81;33006;-62
2023/01/01 12:07:12;;;;;;;5.00;3.72;;;;;;;18.14;53.72;100552.71;2181353;81;29929;-62
2023/01/01 12:10:33;;;;;;;6.92;3.65;;;;;;;18.17;53.55;100554.34;2181482;81;27602;-62
2023/01/01 12:13:47;;;;;;;5.83;3.75;;;;;;;18.20;53.54;100551.40;2181399;81;29001;-62
2023/01/01 12:17:05;;;;;;;5.33;3.87;;;;;;;18.18;53.09;100550.14;2179637;81;31855;-62
2023/01/01 12:20:32;;;;;;;8.28;3.72;;;;;;;18.18;53.31;100554.20;2180455;80;32940;-62
2023/01/01 12:23:36;;;;;;;7.72;4.42;;;;;;;18.18;53.29;100541.16;2181089;81;28183;-62
2023/01/01 12:27:02;;;;;;;8.75;5.12;;;;;;;18.17;53.29;100544.34;2181417;80;27670;-62
2023/01/01 12:30:24;;;;;;;7.75;4.10;;;;;;;18.15;53.27;100540.03;2180657;81;29720;-62
2023/01/01 12:34:04;;;;;;;6.08;4.22;;;;;;;18.16;53.23;100532.28;2106359;84;31025;-62
2023/01/01 12:37:17;;;;;;;7.03;3.75;;;;;;;18.15;52.88;100537.33;2112694;83;33388;-62
2023/01/01 12:40:46;;;;;;;6.85;4.37;;;;;;;18.13;53.29;100527.08;2128693;83;29201;-62
2023/01/01 12:44:17;;;;;;;6.58;4.00;;;;;;;18.12;52.98;100528.91;2129820;83;27766;-62
2023/01/01 12:47:50;;;;;;;9.18;4.30;;;;;;;18.12;53.18;100536.20;2128662;83;29954;-62
2023/01/01 12:51:06;;;;;;;6.53;4.28;;;;;;;18.09;53.00;100533.72;2128844;82;31104;-63
2023/01/01 12:54:40;;;;;;;8.05;4.42;;;;;;;18.04;52.93;100542.22;2126487;83;34364;-62
2023/01/01 12:58:12;;;;;;;6.67;4.47;;;;;;;18.00;52.86;100540.72;2099053;84;30248;-62
2023/01/01 13:01:23;;;;;;;8.28;4.80;;;;;;;17.94;52.72;100542.03;2100396;84;27758;-62
2023/01/01 13:04:26;;;;;;;8.18;4.35;;;;;;;17.88;52.61;100550.15;2099831;84;30925;-63
2023/01/01 13:07:35;;;;;;;5.87;4.05;;;;;;;17.85;52.71;100554.44;2099937;84;32007;-62
2023/01/01 13:10:41;;;;;;;11.25;4.40;;;;;;;17.79;52.71;100553.55;2125175;83;33504;-62
2023/01/01 13:13:43;;;;;;;10.82;6.58;;;;;;;17.72;52.60;100563.98;2135327;83;29014;-62
2023/01/01 13:16:53;;;;;;;8.15;5.22;;;;;;;17.66;52.68;100566.30;2135393;83;27653;-62
2023/01/01 13:20:22;;;;;;;10.25;5.10;;;;;;;17.58;52.74;100561.45;2133892;83;28223;-62
2023/01/01 13:23:39;;;;;;;12.13;6.62;;;;;;;17.51;52.64;100570.53;2135232;83;31590;-62
2023/01/01 13:26:42;;;;;;;26.40;18.42;;;;;;;17.43;52.61;100567.05;2135316;83;33373;-62
2023/01/01 13:29:45;;;;;;;11.53;6.50;;;;;;;17.38;52.80;100576.50;2135002;83;30218;-63
2023/01/01 13:33:35;;;;;;;10.48;5.42;;;;;;;17.30;52.49;100562.17;2135590;83;45627;-63
2023/01/01 13:36:28;;;;;;;12.98;6.10;;;;;;;17.23;52.51;100559.52;2186909;80;29183;-62
2023/01/01 13:40:00;;;;;;;28.87;17.57;;;;;;;17.15;52.85;100571.80;2180828;80;31223;-62
2023/01/01 13:43:16;;;;;;;16.02;10.03;;;;;;;17.11;52.80;100577.05;2181265;81;34067;-62
2023/01/01 13:46:22;;;;;;;15.93;8.05;;;;;;;17.05;53.05;100594.23;2161926;81;29827;-63
2023/01/01 13:49:48;;;;;;;12.55;7.25;;;;;;;16.98;53.02;100602.78;2181192;81;27611;-62
2023/01/01 13:53:05;;;;;;;;;;;;;;;16.89;53.08;100587.19;2179267;80;28618;-62
2023/01/01 13:56:32;;;;;;;13.50;7.37;;;;;;;16.78;53.03;100596.06;2180900;81;32072;-61
2023/01/01 13:59:57;;;;;;;19.82;10.40;;;;;;;16.68;53.20;100602.61;2181194;81;33104;-60
2023/01/01 14:03:02;;;;;;;16.23;8.85;;;;;;;16.60;53.23;100611.77;2180299;81;29872;-61
2023/01/01 14:06:11;;;;;;;14.75;6.80;;;;;;;16.51;53.29;100615.98;2178644;81;27679;-63
2023/01/01 14:09:16;;;;;;;17.62;12.15;;;;;;;16.45;53.34;100616.91;2178605;81;28669;-64
2023/01/01 14:12:19;;;;;;;;;;;;;;;16.36;53.53;100617.05;2181059;81;31847;-60
2023/01/01 14:15:31;;;;;;;25.00;16.50;;;;;;;16.28;53.54;100617.58;2178426;81;33112;-61
2023/01/01 14:18:49;;;;;;;11.63;8.28;;;;;;;16.19;53.72;100613.67;2178429;81;29837;-61
2023/01/01 14:21:52;;;;;;;13.00;7.05;;;;;;;16.07;53.72;100626.17;2205480;80;27704;-61
2023/01/01 14:24:54;;;;;;;9.83;6.28;;;;;;;15.97;53.92;100628.25;2216723;80;28757;-61
2023/01/01 14:28:00;;;;;;;11.28;6.10;;;;;;;15.85;53.96;100620.00;2216710;80;31892;-61
2023/01/01 14:31:16;;;;;;;10.35;5.28;;;;;;;15.73;54.08;100612.19;2188338;80;33867;-61
2023/01/01 14:34:31;;;;;;;11.88;7.08;;;;;;;15.63;54.24;100601.62;2206211;80;29880;-60
2023/01/01 14:37:34;;;;;;;12.45;5.35;;;;;;;15.53;54.34;100613.52;2181498;81;27822;-60
2023/01/01 14:40:38;;;;;;;12.75;6.08;;;;;;;15.43;54.49;100614.60;2185255;80;29471;-63